Beta Version
تعنى (نشرة براءات الاختراع) التي يصدرها مكتب براءات الاختراع لمجلس التعاون لدول الخليج العربية بنشر الإشهارات المنصوص عليها في نظام براءات الاختراع لدول مجلس التعاون ولائحته التنفيذيه والتي تمثلها البيانات والمعلومات بشأن مايطرا على طلبات براءات الاختراع وبراءات الاختراع لدى المكتب خلال فترة النشرة ليغطي أنشطة المكتب المتعلقة بالطلبات والبراءات خلال هذه الفترة




Granted Patents


NoDepositNoTitlePatent NoGrant DateDocument
1 GC 2010-15319 DEVICE FOR DISCHARGING AN EXPLOSIVE GAS GC0004489 2016/12/01 HTML
2 م ت خ/ب/2008/10591 SEPARATION OF POLYMER SLURRIES GC0004490 2016/12/04 HTML
3 GC 2011-17914 SYSTEM AND METHOD FOR SELECTIVE TRIMERIZATION GC0004491 2016/12/04 HTML
4 GC 2011-18930 CATALYST METERING DEVICE GC0004492 2016/12/04 HTML
5 م ت خ/ب/2009/14737 POLYETHYLENE FOR THE PRODUCTION OF TIGHT HEAD DRUMS GC0004494 2016/12/05 HTML
6 GC 2010-15681 DIAMIDE COMPOUNDS HAVING MUSCARINIC RECEPTOR ANTAGONIST AND B2 ADRENERGIC RECEPTOR AGONIST ACTIVITY GC0004496 2016/12/05 HTML
7 م ت خ/ب/2009/13122 DOWNHOLE BARRIER VALVE GC0004497 2016/12/05 HTML
8 GC 2011-19788 SEAWATER ELECTROLYSIS SYSTEM AND SEAWATER ELECTROLYSIS METHOD GC0004499 2016/12/05 HTML
9 م ت خ/ب/2006/6070 AN INTEGRATED PLANT FOR THE PRODUCING 2-ETHYL-HEXANOL AND METHACRYLIC ACID AND METHOD BASED THEREON GC0004500 2016/12/05 HTML
10 GC 2012-22927 MIXED OXIDE BASED CATALYST FOR THE CONVERSION OF CARBON DIOXIDE TO SYNGAS AND METHOD OF PREPARATION AND USE GC0004501 2016/12/05 HTML
11 GC 2013-24817 CATALYST COMPOSITION FOR POLYMERIZATION OF OLEFINS GC0004502 2016/12/05 HTML
12 م ت خ/ب/2008/10096 PROCESS FOR SEPARATING METHACROLEIN FROM METHACRYLIC ACID IN A GAS PHASE PRODUCT FROM THE PARTIAL OXIDATION OF ISOBUTENE GC0004503 2016/12/05 HTML
13 GC 2012-21773 METHOD AND SYSTEM OF DETERMINING A VALUE INDICATIVE OF GAS SATURATION OF A FORMATION GC0004504 2016/12/05 HTML
14 م ت خ/ب/2007/8874 HEPATITIS C VIRUS INHIBITORS GC0004505 2016/12/06 HTML
15 GC 2011-17885 METHOD FOR REMOVING SULFUR COMPOUNDS IN CASTABLE GC0004506 2016/12/07 HTML
16 م ت خ/ب/2008/9884 SAFETY ARRANGEMENT OF AN ELEVATOR GC0004507 2016/12/11 HTML
17 GC 2013-24413 COMPOUNDS AND COMPOSITIONS FOR INHIBITING THE ACTIVITY OF ABL1, ABL2 AND BCR-ABL1 GC0004508 2016/12/11 HTML
18 GC 2012-23045 PROCESS FOR PREPARING N-ALKYLMETHACRYLAMIDES GC0004509 2016/12/11 HTML
19 م ت خ/ب/2009/12688 REFLUX CONDENSER GC0004510 2016/12/11 HTML
20 GC 2012-21302 ELEVATOR ARRANGEMENT GC0004511 2016/12/11 HTML
21 م ت خ/ب/2005/5534 MATRIX TREATMENT OF DAMAGED SANDSTONE FORMATIONS USING BUFFERED HF-ACIDIZING SOLUTIONS GC0004512 2016/12/11 HTML
22 م ت خ/ب/2007/9001 METHOD FOR EVALUATING FASTENING STATE OF THREADED JOINT OF PIPES OR TUBES AND METHOD FOR FASTENING THREADED JOINT OF PIPES OR TUBES USING THE METHOD GC0004513 2016/12/13 HTML
23 GC 2015-29343 MOVING VEHICLES’ UMBRELLA INSTALLED ON THE PAVEMENT GC0004515 2016/12/13 HTML
24 GC 2012-20717 CLINKER SUBSTITUTE GC0004516 2016/12/13 HTML
25 GC 2011-18281 METHOD OF MANUFACTURING COMPOSITE PELLETS FOR EXTRUSION AND COMPOSITE PELLETS FOR EXTRUSION MANUFACTURED BY THE SAME METHOD GC0004517 2016/12/13 HTML
26 GC 2010-16734 ROD-TYPE POLYSILICON HAVING IMPROVED BREAKING PROPERTIES GC0004519 2016/12/14 HTML
27 GC 2011-19201 PROCESS FOR PRODUCTION OF POLYCRYSTALLINE SILICON GC0004520 2016/12/14 HTML
28 GC 2011-17921 SOLID COMPOSITIONS GC0004521 2016/12/14 HTML
29 م ت خ/ب/2008/9926 INTEGRATED CONTROLLED FREEZE ZONE CFZ TOWER AND DIVIDING WALL DWC FOR ENHANCED HYDROCARBON RECOVERY GC0004522 2016/12/15 HTML
30 GC 2011-17923 POLYETHYLENE MANUFACTURING SYSTEM AND METHOD GC0004524 2016/12/15 HTML
31 GC 2010-17371 PROCESS FOR PREPARING A BIMODAL POLYETHYLENE PRODUCT IN A SINGLE LOOP REACTOR GC0004525 2016/12/18 HTML
32 GC 2011-17948 PROCESS AND APPARATUS FOR ISOLATING PURE 1,3-BUTADIENE FROM CRUDE 1,3-BUTADIENE BY DISTILLATION GC0004526 2016/12/18 HTML
33 GC 2011-18632 CUTTING ELEMENTS FOR DOWNHOLE CUTTING TOOLS GC0004527 2016/12/18 HTML
34 GC 2012-22031 METHOD AND APPARATUS FOR SELECTIVELY CONTROLLING FLUID FLOW GC0004529 2016/12/18 HTML
35 GC 2013-23677 METHOD FOR PURIFYING CRUDE AROMATIC DICARBOXYLIC ACID GC0004530 2016/12/18 HTML
36 م ت خ/ب/2009/13808 PROCESS FOR THE PRODUCTION OF POLYETHYLENE GC0004531 2016/12/18 HTML
37 GC 2011-18256 PROCESS FOR PREPARING POLYETHER ALCOHOLS GC0004532 2016/12/18 HTML
38 GC 2011-19449 POLYMER COMPOSITION GC0004533 2016/12/18 HTML
39 م ت خ/ب/2008/10809 POLYETHYLENE FOAM GC0004536 2016/12/18 HTML
40 GC 2011-18042 FABRIC SOFTENER ACTIVE COMPOSITION GC0004537 2016/12/18 HTML
41 GC 2011-20090 PI3 KINASE/mTOR DUAL INHIBITOR GC0004539 2016/12/18 HTML
42 GC 2013-24644 APPARATUS AND METHOD FOR PULSE TESTING A FORMATION GC0004540 2016/12/18 HTML
43 GC 2012-22600 PROCESS FOR PRODUCING MINERAL OIL USING SURFACTANTS BASED ON A MIXTURE OF C24 GUERBET, C26 GUERBET, C28 GUERBET-CONTAINING HYDORCARBYL ALKOXYLATES GC0004541 2016/12/18 HTML
44 GC 2010-17370 METHOD FOR REPLACING COMPATIBLE ETHYLENE POLYMERIZATION CATALYSTS GC0004542 2016/12/19 HTML
45 GC 2010-15381 APPARATUS AND METHOD FOR A WIRELESS SENSOR TO MONITOR BARRIER SYSTEM INTEGRITY GC0004543 2016/12/19 HTML
46 GC 2013-24277 RECYCLED POT GAS POT DISTRIBUTION GC0004544 2016/12/19 HTML
47 GC 2011-19958 WELLBORE APPARATUS AND METHODS FOR MULTI-ZONE WELL COMPLETION, PRODUCTION AND INJECTION GC0004545 2016/12/19 HTML
48 GC 2011-17603 A METHOD OF VENTILATING AN ALUMINIUM PRODUCTION ELECTROLYTIC CELL GC0004546 2016/12/19 HTML
49 GC 2011-19516 SIMULTANEOUS SOURCE INVERSION FOR MARINE STREAMER DATA WITH CROSS-CORRELATION OBJECTIVE FUNCTION GC0004547 2016/12/20 HTML
50 GC 2012-21862 Process for cleaning polycrystalline silicon chunks GC0004548 2016/12/20 HTML
51 GC 2011-18516 CLEANING VEHICLE AND METHOD FOR PARABOLIC TROUGH SOLAR COLLECTORS GC0004549 2016/12/21 HTML
52 م ت خ/ب/2009/13518 METHOD OF TREATING A MOTHER LIQUID SEPARATED FROM PURIFIED TEREPHTHALIC ACID GC0004550 2016/12/21 HTML
53 GC 2012-22050 METHOD FOR PACKAGING POLYCRYSTALLINE SILICON GC0004551 2016/12/21 HTML
54 GC 2012-20447 IMPROVING CONVERGENCE RATE OF FULL WAVEFIELD INVERSION USING SPECTRAL SHAPING GC0004552 2016/12/21 HTML
55 م ت خ/ب/2008/10379 PROCESS AND PLANT FOR PRODUCING METAL OXIDE FROM METAL SALTS GC0004554 2016/12/22 HTML
56 GC 2012-20808 CERAMIC PROPPANT WITH HIGH AMOUNT OF AMORPHOUS PHASE GC0004555 2016/12/22 HTML
57 GC 2012-22447 PYRAZOLOQUINOLINE DERIVATIVES GC0004556 2016/12/22 HTML
58 GC 2012-21018 METHOD FOR FORMING A GROUND-COVERING LAYER, AND THUS FORMED GROUND-COVERING LAYER GC0004557 2016/12/25 HTML
59 GC 2013-23344 THREADED JOINT FOR PIPES GC0004558 2016/12/25 HTML
60 م ت خ/ب/2008/10777 ETHYLENE ELASTOMER COMPOSITIONS GC0004559 2016/12/25 HTML
61 GC 2012-21826 ROBUST PLANAR COMPOSITE WITH AN INTERMEDIATE LAYER OF INCREASED VICAT SOFTENING TEMPERATURE GC0004560 2016/12/26 HTML
62 GC 2012-22384 METHODS AND APPARATUS FOR DEACTIVATING A CATALYST COMPOSITION GC0004561 2016/12/26 HTML
63 م ت خ/ب/2008/11693 METHOD FOR MANUFACTURE OF ESCITALOPRAM GC0004562 2016/12/27 HTML
64 GC 2010-16017 PROCESS FOR TREATING WATER FOR DESALINATION OF SAME, INCLUDING A TREATMENT OF THE CONCENTRATES GC0004563 2016/12/27 HTML
65 م ت خ/ب/2007/8637 PROCESS FOR PREPARING DIENES BY HYDRODIMERIZATION GC0004564 2016/12/27 HTML
66 م ت خ/ب/2008/12075 DESULFURIZATION OF WHOLE CRUDE OIL BY SOLVENT EXTRACTION AND HYDROTREATING GC0004565 2016/12/27 HTML
67 م ت خ/ب/2009/14886 PROCESS FOR THE PREPARATION OF ISOCYANATES IN THE GAS PHASE GC0004566 2016/12/27 HTML
68 GC 2010-15330 MULTISTAGE PROCESS FOR THE POLYMERIZATION OF ETHYLENE GC0004568 2016/12/27 HTML
69 م ت خ/ب/2009/13393 ABSORBENT ARTICLE GC0004569 2016/12/27 HTML
70 م ت خ/ب/2008/11763 EXTRACTION OF HYDROCARBONS FROM HYDROCARBON-CONTAINING MATERIALS GC0004571 2016/12/28 HTML
71 GC 2012-22680 EXTRACTING SV SHEAR DATA FROM P-WAVE SEISMIC DATA GC0004572 2016/12/28 HTML
72 م ت خ/ب/2009/14713 CONVERTING HEAVY SOUR CRUDE OIL/EMULSION TO LIGHTER CRUDE OIL USING CAVITATIONS AND FILTRATION BASED SYSTEMS GC0004573 2016/12/28 HTML
73 م ت خ/ب/2008/11991 METHOD OF INHIBITING SCALE FORMATION AND DEPOSITION IN DESALINATION SYSTEMS GC0004574 2016/12/28 HTML
74 م ت خ/ب/2007/9509 THERMOELECTRIC ELEMENTS, METHOD FOR MANUFACTURING SAME, AND USE OF SAME GC0004575 2016/12/28 HTML
75 GC 2012-22222 NANOSTRUCTURED FLUID SAMPLING DEVICE GC0004577 2016/12/28 HTML
76 GC 2013-23496 ASPHALT COMPOSITIONS WITH SULFUR MODIFIED POLYVINYL ACETATE PVAc GC0004578 2016/12/28 HTML
77 GC 2011-20141 HEAT EXCHANGER FOR THE COOLING OF HOT GASES AND HEAT EXCHANGE SYSTEM GC0004579 2016/12/28 HTML
78 GC 2012-22363 SYSTEM, APPARATUS, AND METHOD FOR UTILIZATION OF BRACELET GALVANIC ANODES TO PROTECT SUBTERRANEAN WELL CASING SECTIONS SHIELDED BY CEMENT AT A CELLAR AREA GC0004580 2016/12/28 HTML
79 م ت خ/ب/2007/9598 PROPANE RECOVERY METHODS AND CONFIGURATIONS GC0004581 2016/12/28 HTML
80 GC 2013-23378 PROCESS FOR DETERMINING SURFACE CONTAMINATION OF POLYCRYSTALLINE SILICON GC0004582 2016/12/28 HTML
81 م ت خ/ب/2008/12084 METHOD OF PROCESSING SEISMIC IMAGES OF THE SUBSURFACE GC0004583 2016/12/28 HTML
82 م ت خ/ب/2007/9210 METHODS FOR PRODUCING A CRUDE PRODUCT GC0004584 2016/12/28 HTML
83 GC 2012-22552 SEAWATER DESALINATION METHOD AND SEAWATER DESALINATION APPARATUS GC0004585 2016/12/29 HTML
84 م ت خ/ب/2007/8786 A COMPOSITION AND METHOD FOR MAKING A PROPPANT GC0004586 2016/12/29 HTML
85 GC 2012-23105 NEW PROCESS FOR THE SYNTHESIS OF IVABRADINE AND ADDITION SALTS THEREOF WITH A PHARMACEUTICALLY ACCEPTABLE ACID GC0004587 2016/12/29 HTML
86 م ت خ/ب/2007/9399 METHOD FOR LIQUEFACTION OF GAS GC0004588 2016/12/29 HTML
87 GC 2012-23176 METHOD OF USING A NON-ACIDIC STIMULATION FLUID IN HIGH TEMPERATURE SANDSTONE FORMATIONS GC0004589 2016/12/29 HTML
88 م ت خ/ب/2009/14212 FLUID FLOW CONTROL MEMBERS FOR USE WITH VALVES GC0004590 2016/12/29 HTML
89 م ت خ/ب/2006/6198 IMPROVED METHOD FOR PREPARING GINKGO EXTRACTS HAVING A LOW CONTENT OF 4 -O-METHYL PYRIDOXINE AND/OR BIFLAVONES GC0004591 2016/12/29 HTML
90 م ت خ/ب/2009/13178 MANUFACTURING METHOD AND MANUFACTURING APPARATUS FOR ABSORBENT ARTICLES GC0004592 2016/12/29 HTML
91 م ت خ/ب/2008/10155 METHOD AND APPARATUS FOR REDUCING ADDITIVES IN A HYDROCARBON STREAM GC0004593 2016/12/29 HTML

Fallen Patents

NoPatent NoTitleDecision NoGrant DateDocument
1 GC0004493 LIQUID PHASE HYDROGENATION OF ALKYNES 16/88972 2016/12/05
2 GC0004495 PROCESS FOR PREPARING ALKYL ALKOXYBENZOATES IN ONE STEP 16/88974 2016/12/05
3 GC0004498 POLYETHYLENE FOR THE PRODUCTION OF INTERMEDIATE BULK CONTAINERS 16/88977 2016/12/05
4 GC0004514 METHOD FOR PRODUCING HYDROCARBON OIL AND SYSTEM FOR PRODUCING HYDROCARBON OIL 16/89472 2016/12/13
5 GC0004518 INTRAVENOUS INJECTION OF NON-NEUROTOXIC PLASMINOGEN ACTIVATORS FOR THE TREATMENT OF STROKE 16/89504 2016/12/14
6 GC0004523 PROCESS FOR THE PREPARATION OF UREA 16/89615 2016/12/15
7 GC0004528 SOLAR HEAT COLLECTOR AND SOLAR HEAT COLLECTION METHOD 16/89624 2016/12/18
8 GC0004534 REACTOR FOR CARRYING OUT AN AUTOTHERMAL GAS-PHASE DEHYDROGENATION 16/89678 2016/12/18
9 GC0004535 DUAL CURE SYSTEM 16/89679 2016/12/18
10 GC0004538 PROCESS FOR PRODUCING GRANULES COMPRISING ONE OR MORE COMPLEXING AGENT SALTS 16/89717 2016/12/18
11 GC0004567 METHOD OF TREATING A SUBTERRANEAN FORMATION USING A RHEOLOGY MODEL FOR FLUID OPTIMIZATION 16/90186 2016/12/27
12 GC0004570 PROCESS FOR REGENERATING A CATALYST USED IN THE PREPARATION OF ACROLEIN FROM GLYCEROL 16/90189 2016/12/27
13 GC0004576 METHODS OF LIMITING LEAK OFF AND DAMAGE IN HYDRAULIC FRACTURES 16/90294 2016/12/28


 





All Rights Reserved